createdAt,value
2023-04-09T00:01:52.108Z,30.35
2023-04-09T00:04:25.118Z,30.04
2023-04-09T00:06:57.409Z,30.54
2023-04-09T00:09:29.657Z,30.56
2023-04-09T00:12:02.316Z,30.49
2023-04-09T00:14:34.594Z,29.56
2023-04-09T00:17:09.433Z,29.86
2023-04-09T00:19:41.775Z,28.89
2023-04-09T00:22:14.022Z,29.21
2023-04-09T00:24:46.368Z,29.21
2023-04-09T00:27:18.683Z,29.52
2023-04-09T00:29:50.969Z,29.65
2023-04-09T00:32:25.976Z,29.81
2023-04-09T00:34:58.183Z,30.07
2023-04-09T00:37:30.526Z,29.79
2023-04-09T00:40:02.766Z,29.71
2023-04-09T00:42:36.507Z,30.05
2023-04-09T00:45:09.856Z,29.57
2023-04-09T00:47:46.698Z,30.06
2023-04-09T00:50:20.240Z,29.69
2023-04-09T00:52:52.475Z,29.87
2023-04-09T00:55:26.365Z,29.59
2023-04-09T00:57:58.583Z,29.42
2023-04-09T01:00:31.040Z,29.45
2023-04-09T01:03:08.661Z,29.17
2023-04-09T01:05:52.824Z,29.61
2023-04-09T01:08:37.333Z,29.75
2023-04-09T01:11:19.908Z,29.83
2023-04-09T01:14:04.395Z,30.17
2023-04-09T01:16:41.048Z,30.54
2023-04-09T01:19:36.622Z,30.01
2023-04-09T01:22:18.089Z,30.02
2023-04-09T01:25:07.374Z,28.78
2023-04-09T01:27:51.071Z,30.23
2023-04-09T01:30:26.643Z,29.90
2023-04-09T01:33:02.619Z,30.15
2023-04-09T01:35:35.632Z,30.34
2023-04-09T01:38:09.856Z,29.41
2023-04-09T01:40:42.379Z,29.26
2023-04-09T01:43:17.374Z,29.42
2023-04-09T01:45:54.564Z,29.61
2023-04-09T01:48:28.330Z,29.40
2023-04-09T01:51:01.724Z,29.87
2023-04-09T01:53:33.990Z,30.01
2023-04-09T01:56:06.810Z,31.00
2023-04-09T01:58:40.818Z,30.31
2023-04-09T02:01:25.908Z,30.90
2023-04-09T02:04:04.733Z,30.70
2023-04-09T02:06:46.645Z,31.16
2023-04-09T02:09:24.307Z,31.10
2023-04-09T02:12:01.191Z,29.93
2023-04-09T02:14:37.273Z,30.86
2023-04-09T02:17:12.392Z,31.63
2023-04-09T02:19:45.554Z,31.43
2023-04-09T02:22:19.355Z,30.46
2023-04-09T02:24:51.940Z,31.14
2023-04-09T02:27:24.201Z,31.32
2023-04-09T02:29:56.402Z,31.33
2023-04-09T02:32:31.330Z,31.85
2023-04-09T02:35:03.739Z,31.50
2023-04-09T02:37:35.964Z,31.43
2023-04-09T02:40:08.663Z,31.61
2023-04-09T02:42:40.936Z,31.76
2023-04-09T02:45:14.295Z,31.24
2023-04-09T02:47:49.194Z,31.40
2023-04-09T02:50:21.708Z,31.74
2023-04-09T02:52:54.068Z,31.39
2023-04-09T02:55:26.611Z,31.59
2023-04-09T02:57:58.834Z,31.94
2023-04-09T03:00:31.141Z,32.48
2023-04-09T03:03:06.152Z,31.76
2023-04-09T03:05:39.156Z,31.50
2023-04-09T03:08:11.379Z,31.55
2023-04-09T03:10:43.572Z,30.99
2023-04-09T03:13:15.923Z,31.84
2023-04-09T03:15:48.139Z,31.09
2023-04-09T03:18:23.041Z,31.77
2023-04-09T03:20:55.301Z,31.01
2023-04-09T03:23:27.569Z,31.23
2023-04-09T03:26:05.823Z,31.09
2023-04-09T03:28:38.095Z,31.51
2023-04-09T03:31:10.375Z,30.97
2023-04-09T03:33:45.289Z,30.91
2023-04-09T03:36:17.518Z,30.51
2023-04-09T03:38:49.926Z,30.15
2023-04-09T03:41:22.322Z,30.62
2023-04-09T03:43:54.511Z,30.57
2023-04-09T03:46:26.832Z,30.72
2023-04-09T03:49:01.968Z,29.98
2023-04-09T03:51:34.663Z,30.75
2023-04-09T03:54:06.922Z,29.96
2023-04-09T03:56:39.094Z,30.34
2023-04-09T03:59:11.417Z,29.83
2023-04-09T04:01:43.749Z,30.06
2023-04-09T04:04:20.575Z,30.86
2023-04-09T04:06:55.158Z,29.71
2023-04-09T04:09:27.451Z,30.08
2023-04-09T04:11:59.720Z,29.59
2023-04-09T04:14:31.922Z,30.52
2023-04-09T04:17:04.127Z,29.93
2023-04-09T04:19:39.016Z,30.90
2023-04-09T04:22:11.244Z,30.28
2023-04-09T04:24:43.436Z,29.14
2023-04-09T04:27:16.050Z,30.50
2023-04-09T04:29:48.313Z,29.36
2023-04-09T04:32:20.631Z,29.62
2023-04-09T04:34:56.100Z,30.41
2023-04-09T04:37:28.472Z,30.10
2023-04-09T04:40:00.751Z,30.33
2023-04-09T04:42:33.041Z,30.11
2023-04-09T04:45:05.824Z,30.09
2023-04-09T04:47:38.018Z,29.46
2023-04-09T04:50:14.319Z,30.07
2023-04-09T04:52:46.540Z,29.90
2023-04-09T04:55:18.723Z,29.24
2023-04-09T04:57:50.998Z,30.12
2023-04-09T05:00:23.281Z,30.27
2023-04-09T05:02:55.556Z,30.04
2023-04-09T05:05:30.622Z,30.41
2023-04-09T05:08:02.872Z,29.91
2023-04-09T05:10:35.167Z,30.07
2023-04-09T05:13:07.392Z,30.17
2023-04-09T05:15:42.600Z,30.98
2023-04-09T05:18:14.806Z,30.78
2023-04-09T05:20:49.563Z,29.86
2023-04-09T05:23:21.812Z,30.36
2023-04-09T05:25:54.069Z,30.23
2023-04-09T05:28:26.292Z,30.46
2023-04-09T05:30:58.614Z,29.95
2023-04-09T05:33:33.844Z,30.43
2023-04-09T05:36:09.241Z,30.58
2023-04-09T05:38:41.554Z,30.48
2023-04-09T05:41:13.912Z,31.58
2023-04-09T05:43:46.172Z,31.49
2023-04-09T05:46:18.477Z,31.96
2023-04-09T05:48:51.065Z,32.23
2023-04-09T05:51:26.090Z,31.97
2023-04-09T05:53:58.327Z,33.26
2023-04-09T05:56:30.513Z,34.50
2023-04-09T05:59:02.733Z,35.21
2023-04-09T06:01:34.985Z,35.53
2023-04-09T06:04:07.405Z,36.11
2023-04-09T06:06:44.211Z,35.73
2023-04-09T06:09:16.358Z,35.65
2023-04-09T06:11:48.560Z,35.55
2023-04-09T06:14:20.825Z,36.69
2023-04-09T06:16:53.073Z,35.23
2023-04-09T06:19:25.809Z,34.14
2023-04-09T06:22:00.629Z,33.81
2023-04-09T06:24:35.448Z,33.75
2023-04-09T06:27:08.052Z,33.79
2023-04-09T06:29:40.291Z,34.62
2023-04-09T06:32:12.510Z,33.87
2023-04-09T06:34:44.692Z,33.43
2023-04-09T06:37:19.572Z,32.56
2023-04-09T06:40:00.337Z,31.74
2023-04-09T06:42:33.039Z,31.41
2023-04-09T06:45:08.563Z,31.84
2023-04-09T06:47:41.209Z,31.06
2023-04-09T06:50:13.901Z,32.16
2023-04-09T06:52:48.699Z,31.66
2023-04-09T06:55:20.997Z,31.16
2023-04-09T06:57:53.255Z,30.51
2023-04-09T07:00:26.396Z,29.01
2023-04-09T07:02:58.875Z,29.49
2023-04-09T07:05:31.467Z,29.15
2023-04-09T07:08:06.235Z,27.49
2023-04-09T07:10:38.530Z,28.64
2023-04-09T07:13:11.162Z,27.32
2023-04-09T07:15:43.464Z,28.01
2023-04-09T07:18:15.883Z,28.16
2023-04-09T07:20:48.095Z,27.81
2023-04-09T07:23:22.986Z,27.68
2023-04-09T07:25:55.340Z,27.69
2023-04-09T07:28:27.747Z,27.95
2023-04-09T07:31:01.533Z,27.91
2023-04-09T07:33:34.080Z,28.34
2023-04-09T07:36:07.020Z,27.80
2023-04-09T07:38:41.936Z,27.02
2023-04-09T07:41:15.675Z,26.44
2023-04-09T07:43:47.946Z,25.90
2023-04-09T07:46:23.768Z,26.09
2023-04-09T07:48:56.246Z,25.22
2023-04-09T07:51:28.959Z,26.49
2023-04-09T07:54:03.792Z,26.31
2023-04-09T07:56:36.125Z,26.78
2023-04-09T07:59:08.360Z,25.78
2023-04-09T08:01:40.685Z,27.44
2023-04-09T08:04:16.019Z,26.94
2023-04-09T08:06:51.016Z,26.76
2023-04-09T08:09:26.218Z,26.94
2023-04-09T08:11:58.566Z,26.31
2023-04-09T08:14:30.827Z,26.76
2023-04-09T08:17:03.922Z,26.76
2023-04-09T08:19:36.177Z,27.01
2023-04-09T08:22:08.434Z,27.20
2023-04-09T08:24:43.981Z,27.91
2023-04-09T08:27:16.301Z,28.07
2023-04-09T08:29:48.472Z,28.82
2023-04-09T08:32:20.984Z,29.20
2023-04-09T08:34:53.245Z,29.01
2023-04-09T08:37:25.678Z,28.72
2023-04-09T08:40:00.499Z,28.61
2023-04-09T08:42:35.715Z,30.01
2023-04-09T08:45:09.356Z,30.55
2023-04-09T08:47:44.238Z,30.37
2023-04-09T08:50:17.188Z,30.59
2023-04-09T08:52:52.834Z,29.99
2023-04-09T08:55:27.915Z,30.04
2023-04-09T08:58:01.246Z,31.28
2023-04-09T09:00:33.427Z,32.11
2023-04-09T09:03:07.345Z,30.81
2023-04-09T09:05:44.084Z,31.63
2023-04-09T09:08:18.373Z,31.91
2023-04-09T09:10:53.351Z,31.31
2023-04-09T09:13:28.002Z,32.25
2023-04-09T09:16:18.203Z,32.81
2023-04-09T09:18:51.625Z,34.47
2023-04-09T09:21:24.758Z,36.52
2023-04-09T09:23:57.094Z,37.50
2023-04-09T09:26:33.656Z,37.19
2023-04-09T09:29:08.565Z,35.71
2023-04-09T09:31:51.301Z,36.09
2023-04-09T09:34:25.617Z,36.49
2023-04-09T09:36:57.889Z,36.59
2023-04-09T09:39:47.415Z,36.23
2023-04-09T09:42:22.309Z,35.56
2023-04-09T09:44:55.636Z,35.91
2023-04-09T09:47:29.624Z,35.41
2023-04-09T09:50:01.843Z,34.03
2023-04-09T09:52:34.290Z,34.49
2023-04-09T09:55:11.702Z,33.56
2023-04-09T09:57:50.737Z,33.22
2023-04-09T10:00:25.711Z,33.05
2023-04-09T10:03:03.565Z,33.75
2023-04-09T10:05:36.887Z,33.24
2023-04-09T10:08:09.592Z,32.50
2023-04-09T10:10:45.172Z,31.57
2023-04-09T10:13:29.884Z,32.01
2023-04-09T10:16:02.735Z,32.47
2023-04-09T10:18:36.228Z,31.04
2023-04-09T10:21:16.450Z,30.48
2023-04-09T10:23:52.298Z,29.51
2023-04-09T10:26:27.626Z,29.69
2023-04-09T10:29:14.827Z,29.68
2023-04-09T10:32:07.835Z,29.04
2023-04-09T10:34:43.805Z,29.54
2023-04-09T10:37:20.198Z,30.57
2023-04-09T10:39:54.268Z,29.06
2023-04-09T10:42:29.216Z,29.59
2023-04-09T10:45:15.285Z,29.05
2023-04-09T10:47:48.614Z,29.23
2023-04-09T10:50:24.138Z,28.61
2023-04-09T10:53:00.409Z,28.73
2023-04-09T10:55:39.358Z,28.62
2023-04-09T10:58:13.964Z,28.54
2023-04-09T11:00:51.370Z,28.14
2023-04-09T11:03:30.700Z,27.87
2023-04-09T11:06:09.441Z,26.11
2023-04-09T11:08:43.471Z,24.94
2023-04-09T11:11:16.788Z,25.15
2023-04-09T11:13:49.058Z,23.64
2023-04-09T11:16:25.475Z,22.77
2023-04-09T11:18:58.991Z,23.38
2023-04-09T11:21:33.386Z,21.89
2023-04-09T11:24:06.332Z,20.99
2023-04-09T11:26:41.712Z,19.54
2023-04-09T11:29:14.006Z,19.60
2023-04-09T11:31:50.646Z,18.90
2023-04-09T11:34:22.889Z,18.68
2023-04-09T11:36:55.177Z,17.31
2023-04-09T11:39:27.410Z,17.36
2023-04-09T11:41:59.650Z,16.95
2023-04-09T11:44:31.881Z,16.11
2023-04-09T11:47:07.527Z,16.16
2023-04-09T11:49:40.077Z,16.56
2023-04-09T11:52:12.586Z,16.40
2023-04-09T11:54:44.786Z,16.29
2023-04-09T11:57:17.044Z,16.61
2023-04-09T11:59:49.665Z,16.78
2023-04-09T12:02:25.360Z,16.35
2023-04-09T12:04:57.755Z,17.18
2023-04-09T12:07:38.045Z,16.61
2023-04-09T12:10:14.043Z,17.10
2023-04-09T12:12:47.906Z,16.53
2023-04-09T12:15:25.788Z,16.69
2023-04-09T12:18:03.013Z,16.76
2023-04-09T12:20:39.724Z,17.00
2023-04-09T12:23:13.522Z,16.51
2023-04-09T12:25:48.263Z,16.74
2023-04-09T12:28:21.611Z,15.29
2023-04-09T12:30:55.580Z,15.06
2023-04-09T12:33:30.629Z,15.45
2023-04-09T12:36:02.939Z,15.44
2023-04-09T12:38:35.250Z,15.11
2023-04-09T12:41:07.575Z,14.74
2023-04-09T12:43:39.787Z,14.76
2023-04-09T12:46:12.073Z,15.46
2023-04-09T12:48:46.928Z,16.00
2023-04-09T12:51:19.617Z,15.57
2023-04-09T12:53:52.147Z,15.39
2023-04-09T12:56:25.002Z,15.61
2023-04-09T12:58:57.221Z,15.56
2023-04-09T13:01:29.512Z,15.49
2023-04-09T13:04:04.427Z,15.01
2023-04-09T13:06:36.808Z,15.11
2023-04-09T13:09:09.101Z,16.19
2023-04-09T13:11:41.400Z,16.24
2023-04-09T13:14:14.597Z,15.09
2023-04-09T13:16:46.819Z,15.11
2023-04-09T13:19:21.778Z,15.22
2023-04-09T13:21:53.998Z,16.30
2023-04-09T13:24:26.237Z,15.64
2023-04-09T13:26:58.521Z,15.35
2023-04-09T13:29:31.607Z,15.04
2023-04-09T13:32:07.335Z,15.54
2023-04-09T13:34:43.690Z,15.54
2023-04-09T13:37:15.997Z,15.24
2023-04-09T13:39:48.558Z,15.69
2023-04-09T13:42:20.844Z,15.17
2023-04-09T13:44:53.073Z,15.56
2023-04-09T13:47:25.292Z,15.43
2023-04-09T13:50:00.180Z,14.69
2023-04-09T13:52:32.929Z,14.87
2023-04-09T13:55:05.206Z,14.66
2023-04-09T13:57:37.486Z,14.81
2023-04-09T14:00:11.365Z,14.40
2023-04-09T14:02:44.033Z,14.54
2023-04-09T14:05:18.926Z,14.63
2023-04-09T14:07:51.187Z,14.51
2023-04-09T14:10:23.417Z,13.76
2023-04-09T14:12:56.493Z,14.66
2023-04-09T14:15:28.740Z,14.60
2023-04-09T14:18:01.182Z,14.38
2023-04-09T14:20:38.599Z,13.98
2023-04-09T14:23:10.803Z,12.91
2023-04-09T14:25:43.149Z,12.67
2023-04-09T14:28:15.454Z,13.99
2023-04-09T14:30:47.735Z,14.42
2023-04-09T14:33:19.911Z,14.43
2023-04-09T14:35:54.883Z,14.56
2023-04-09T14:38:27.238Z,14.56
2023-04-09T14:40:59.503Z,14.69
2023-04-09T14:43:31.756Z,14.29
2023-04-09T14:46:04.209Z,15.07
2023-04-09T14:48:36.462Z,15.24
2023-04-09T14:51:12.895Z,15.16
2023-04-09T14:53:45.306Z,15.16
2023-04-09T14:56:17.546Z,15.27
2023-04-09T14:58:49.773Z,15.36
2023-04-09T15:01:22.786Z,14.98
2023-04-09T15:03:55.455Z,13.99
2023-04-09T15:06:31.547Z,14.97
2023-04-09T15:09:03.865Z,14.26
2023-04-09T15:11:36.117Z,14.71
2023-04-09T15:14:08.408Z,13.86
2023-04-09T15:16:40.763Z,13.23
2023-04-09T15:19:13.028Z,13.44
2023-04-09T15:21:48.009Z,13.34
2023-04-09T15:24:20.715Z,14.24
2023-04-09T15:26:53.109Z,14.34
2023-04-09T15:29:25.532Z,14.42
2023-04-09T15:31:58.489Z,14.75
2023-04-09T15:34:30.862Z,14.49
2023-04-09T15:37:05.736Z,14.28
2023-04-09T15:39:38.019Z,15.13
2023-04-09T15:42:12.775Z,14.64
2023-04-09T15:44:46.919Z,14.49
2023-04-09T15:47:19.210Z,14.05
2023-04-09T15:49:51.620Z,14.37
2023-04-09T15:52:26.896Z,13.69
2023-04-09T15:54:59.356Z,13.69
2023-04-09T15:57:31.704Z,14.47
2023-04-09T16:00:04.003Z,13.92
2023-04-09T16:02:38.845Z,13.60
2023-04-09T16:05:12.258Z,13.94
2023-04-09T16:07:47.053Z,14.49
2023-04-09T16:10:19.330Z,14.29
2023-04-09T16:12:51.673Z,14.29
2023-04-09T16:15:23.891Z,14.83
2023-04-09T16:17:56.826Z,16.31
2023-04-09T16:20:29.468Z,14.02
2023-04-09T16:23:04.329Z,13.81
2023-04-09T16:25:36.612Z,13.87
2023-04-09T16:28:09.343Z,12.86
2023-04-09T16:30:41.566Z,12.93
2023-04-09T16:33:14.305Z,12.69
2023-04-09T16:35:46.754Z,12.98
2023-04-09T16:38:23.764Z,12.51
2023-04-09T16:40:56.203Z,14.21
2023-04-09T16:43:29.263Z,13.90
2023-04-09T16:46:01.918Z,14.21
2023-04-09T16:48:34.246Z,14.02
2023-04-09T16:51:06.480Z,14.21
2023-04-09T16:53:41.297Z,15.51
2023-04-09T16:56:13.923Z,15.42
2023-04-09T16:58:46.131Z,15.46
2023-04-09T17:01:18.440Z,15.21
2023-04-09T17:03:53.126Z,14.81
2023-04-09T17:06:25.364Z,14.30
2023-04-09T17:09:00.176Z,14.69
2023-04-09T17:11:32.754Z,15.11
2023-04-09T17:14:05.011Z,14.79
2023-04-09T17:16:38.311Z,14.54
2023-04-09T17:19:10.520Z,15.00
2023-04-09T17:21:43.014Z,15.01
2023-04-09T17:24:17.853Z,15.52
2023-04-09T17:26:50.082Z,15.54
2023-04-09T17:29:22.447Z,15.64
2023-04-09T17:31:55.051Z,16.18
2023-04-09T17:34:27.443Z,16.73
2023-04-09T17:37:00.266Z,16.22
2023-04-09T17:39:35.691Z,16.52
2023-04-09T17:42:08.030Z,16.58
2023-04-09T17:44:40.282Z,16.71
2023-04-09T17:47:12.579Z,16.44
2023-04-09T17:49:45.933Z,16.76
2023-04-09T17:52:18.278Z,16.69
2023-04-09T17:54:53.510Z,17.18
2023-04-09T17:57:25.793Z,17.99
2023-04-09T17:59:57.951Z,17.69
2023-04-09T18:02:30.330Z,17.60
2023-04-09T18:05:04.752Z,16.38
2023-04-09T18:07:37.106Z,17.61
2023-04-09T18:10:12.814Z,17.16
2023-04-09T18:12:44.999Z,17.69
2023-04-09T18:15:18.897Z,19.86
2023-04-09T18:17:51.677Z,28.36
2023-04-09T18:20:24.004Z,19.09
2023-04-09T18:22:56.212Z,18.87
2023-04-09T18:25:31.205Z,23.57
2023-04-09T18:28:03.436Z,26.02
2023-04-09T18:30:36.367Z,20.50
2023-04-09T18:33:08.888Z,19.24
2023-04-09T18:35:41.127Z,20.04
2023-04-09T18:38:13.330Z,22.60
2023-04-09T18:40:49.026Z,23.17
2023-04-09T18:43:21.364Z,23.70
2023-04-09T18:45:53.906Z,24.86
2023-04-09T18:48:26.198Z,26.81
2023-04-09T18:50:59.190Z,23.46
2023-04-09T18:53:31.573Z,20.66
2023-04-09T18:56:07.494Z,20.69
2023-04-09T18:58:39.714Z,20.79
2023-04-09T19:01:15.554Z,21.14
2023-04-09T19:03:48.057Z,22.62
2023-04-09T19:06:23.450Z,22.71
2023-04-09T19:08:58.377Z,24.22
2023-04-09T19:11:33.120Z,23.44
2023-04-09T19:14:05.353Z,24.51
2023-04-09T19:16:37.718Z,23.52
2023-04-09T19:19:10.020Z,22.29
2023-04-09T19:21:42.702Z,21.62
2023-04-09T19:24:15.001Z,21.60
2023-04-09T19:26:51.049Z,21.31
2023-04-09T19:29:23.369Z,23.09
2023-04-09T19:31:56.148Z,23.94
2023-04-09T19:34:28.476Z,25.19
2023-04-09T19:37:01.044Z,25.70
2023-04-09T19:39:33.411Z,24.73
2023-04-09T19:42:08.367Z,22.35
2023-04-09T19:44:40.825Z,21.35
2023-04-09T19:47:13.152Z,21.49
2023-04-09T19:49:45.737Z,20.89
2023-04-09T19:52:18.006Z,19.64
2023-04-09T19:54:50.327Z,18.77
2023-04-09T19:57:26.604Z,18.66
2023-04-09T19:59:58.844Z,17.89
2023-04-09T20:02:32.008Z,18.60
2023-04-09T20:05:04.591Z,19.41
2023-04-09T20:07:36.886Z,19.78
2023-04-09T20:10:10.630Z,20.00
2023-04-09T20:12:45.542Z,20.66
2023-04-09T20:15:20.142Z,21.36
2023-04-09T20:17:52.975Z,21.48
2023-04-09T20:20:25.254Z,22.31
2023-04-09T20:22:57.743Z,22.15
2023-04-09T20:25:34.970Z,21.43
2023-04-09T20:28:10.160Z,23.20
2023-04-09T20:30:42.996Z,27.86
2023-04-09T20:33:15.217Z,26.85
2023-04-09T20:35:48.351Z,23.08
2023-04-09T20:38:22.461Z,22.11
2023-04-09T20:40:54.760Z,22.61
2023-04-09T20:43:29.571Z,23.09
2023-04-09T20:46:01.836Z,23.52
2023-04-09T20:48:34.479Z,23.38
2023-04-09T20:51:11.874Z,23.54
2023-04-09T20:53:44.154Z,24.72
2023-04-09T20:56:17.094Z,25.51
2023-04-09T20:58:52.480Z,25.91
2023-04-09T21:01:27.382Z,26.11
2023-04-09T21:03:59.781Z,26.80
2023-04-09T21:06:32.125Z,26.87
2023-04-09T21:09:04.397Z,26.05
2023-04-09T21:11:36.640Z,25.76
2023-04-09T21:14:12.942Z,25.96
2023-04-09T21:16:45.261Z,26.41
2023-04-09T21:19:17.505Z,26.40
2023-04-09T21:21:49.795Z,27.23
2023-04-09T21:24:22.045Z,26.17
2023-04-09T21:26:54.248Z,25.98
2023-04-09T21:29:29.242Z,25.27
2023-04-09T21:32:01.441Z,24.94
2023-04-09T21:34:33.656Z,24.59
2023-04-09T21:37:07.134Z,24.66
2023-04-09T21:39:39.531Z,25.74
2023-04-09T21:42:11.731Z,25.51
2023-04-09T21:44:46.490Z,25.37
2023-04-09T21:47:18.767Z,25.46
2023-04-09T21:49:51.036Z,24.51
2023-04-09T21:52:23.402Z,24.33
2023-04-09T21:54:55.597Z,24.86
2023-04-09T21:57:27.857Z,24.02
2023-04-09T22:00:03.525Z,22.89
2023-04-09T22:02:38.853Z,23.16
2023-04-09T22:05:11.942Z,22.23
2023-04-09T22:07:46.484Z,22.81
2023-04-09T22:10:18.661Z,23.56
2023-04-09T22:12:50.963Z,23.23
2023-04-09T22:15:26.171Z,23.42
2023-04-09T22:17:58.698Z,23.37
2023-04-09T22:20:30.954Z,22.64
2023-04-09T22:23:03.395Z,22.77
2023-04-09T22:25:36.643Z,21.79
2023-04-09T22:28:09.037Z,21.20
2023-04-09T22:30:43.823Z,21.82
2023-04-09T22:33:16.063Z,21.91
2023-04-09T22:35:49.257Z,22.11
2023-04-09T22:38:21.751Z,21.31
2023-04-09T22:40:54.455Z,20.52
2023-04-09T22:43:26.761Z,21.15
2023-04-09T22:46:02.247Z,20.54
2023-04-09T22:48:40.739Z,19.86
2023-04-09T22:51:16.773Z,20.86
2023-04-09T22:53:49.781Z,20.37
2023-04-09T22:56:22.495Z,20.07
2023-04-09T22:58:54.967Z,20.57
2023-04-09T23:01:30.524Z,21.00
2023-04-09T23:04:02.784Z,20.49
2023-04-09T23:06:35.036Z,20.50
2023-04-09T23:09:07.437Z,21.42
2023-04-09T23:11:39.639Z,22.25
2023-04-09T23:14:11.829Z,22.81
2023-04-09T23:16:46.707Z,23.63
2023-04-09T23:19:18.994Z,23.29
2023-04-09T23:21:51.229Z,24.16
2023-04-09T23:24:23.426Z,25.49
2023-04-09T23:26:56.338Z,25.76
2023-04-09T23:29:28.560Z,25.54
2023-04-09T23:32:03.718Z,24.88
2023-04-09T23:34:36.024Z,25.74
2023-04-09T23:37:09.454Z,24.90
2023-04-09T23:39:41.777Z,24.06
2023-04-09T23:42:14.040Z,25.70
2023-04-09T23:44:46.896Z,25.36
2023-04-09T23:47:22.374Z,26.83
2023-04-09T23:49:54.741Z,27.87
2023-04-09T23:52:26.985Z,27.18
2023-04-09T23:55:00.060Z,27.28
2023-04-09T23:57:32.474Z,27.01
